sensor_id;sensor_type;location;lat;lon;timestamp;P1;durP1;ratioP1;P2;durP2;ratioP2
68126;SDS011;54931;52.098;21.006;2022-08-19T00:02:09;16.20;;;10.50;;
68126;SDS011;54931;52.098;21.006;2022-08-19T00:04:37;19.80;;;10.50;;
68126;SDS011;54931;52.098;21.006;2022-08-19T00:07:05;15.50;;;10.20;;
68126;SDS011;54931;52.098;21.006;2022-08-19T00:09:33;16.50;;;10.30;;
68126;SDS011;54931;52.098;21.006;2022-08-19T00:12:02;19.20;;;10.30;;
68126;SDS011;54931;52.098;21.006;2022-08-19T00:14:30;15.60;;;10.40;;
68126;SDS011;54931;52.098;21.006;2022-08-19T00:16:58;15.60;;;10.50;;
68126;SDS011;54931;52.098;21.006;2022-08-19T00:19:27;19.60;;;10.70;;
68126;SDS011;54931;52.098;21.006;2022-08-19T00:21:54;14.80;;;11.30;;
68126;SDS011;54931;52.098;21.006;2022-08-19T00:24:23;18.60;;;10.90;;
68126;SDS011;54931;52.098;21.006;2022-08-19T00:26:52;16.10;;;10.60;;
68126;SDS011;54931;52.098;21.006;2022-08-19T00:29:21;16.30;;;10.70;;
68126;SDS011;54931;52.098;21.006;2022-08-19T00:31:51;13.40;;;10.10;;
68126;SDS011;54931;52.098;21.006;2022-08-19T00:34:23;16.80;;;10.80;;
68126;SDS011;54931;52.098;21.006;2022-08-19T00:36:52;15.00;;;11.00;;
68126;SDS011;54931;52.098;21.006;2022-08-19T00:39:19;16.40;;;11.20;;
68126;SDS011;54931;52.098;21.006;2022-08-19T00:41:48;18.50;;;10.70;;
68126;SDS011;54931;52.098;21.006;2022-08-19T00:44:21;16.40;;;10.90;;
68126;SDS011;54931;52.098;21.006;2022-08-19T00:46:52;18.90;;;11.70;;
68126;SDS011;54931;52.098;21.006;2022-08-19T00:49:26;17.80;;;11.20;;
68126;SDS011;54931;52.098;21.006;2022-08-19T00:52:15;18.70;;;11.40;;
68126;SDS011;54931;52.098;21.006;2022-08-19T00:54:49;17.40;;;11.40;;
68126;SDS011;54931;52.098;21.006;2022-08-19T00:57:26;15.70;;;11.00;;
68126;SDS011;54931;52.098;21.006;2022-08-19T01:00:00;20.10;;;11.50;;
68126;SDS011;54931;52.098;21.006;2022-08-19T01:02:32;16.60;;;10.80;;
68126;SDS011;54931;52.098;21.006;2022-08-19T01:05:06;13.80;;;9.70;;
68126;SDS011;54931;52.098;21.006;2022-08-19T01:07:39;17.70;;;10.20;;
68126;SDS011;54931;52.098;21.006;2022-08-19T01:12:35;16.70;;;11.00;;
68126;SDS011;54931;52.098;21.006;2022-08-19T01:15:05;14.20;;;9.90;;
68126;SDS011;54931;52.098;21.006;2022-08-19T01:17:38;14.50;;;10.50;;
68126;SDS011;54931;52.098;21.006;2022-08-19T01:20:12;16.40;;;11.10;;
68126;SDS011;54931;52.098;21.006;2022-08-19T01:23:03;15.50;;;10.70;;
68126;SDS011;54931;52.098;21.006;2022-08-19T01:25:49;16.00;;;10.20;;
68126;SDS011;54931;52.098;21.006;2022-08-19T01:28:25;18.20;;;10.60;;
68126;SDS011;54931;52.098;21.006;2022-08-19T01:30:54;22.20;;;11.50;;
68126;SDS011;54931;52.098;21.006;2022-08-19T01:33:22;17.30;;;10.90;;
68126;SDS011;54931;52.098;21.006;2022-08-19T01:35:49;15.60;;;10.30;;
68126;SDS011;54931;52.098;21.006;2022-08-19T01:38:26;14.80;;;10.70;;
68126;SDS011;54931;52.098;21.006;2022-08-19T01:40:58;19.30;;;11.70;;
68126;SDS011;54931;52.098;21.006;2022-08-19T01:43:26;18.40;;;11.20;;
68126;SDS011;54931;52.098;21.006;2022-08-19T01:45:54;17.20;;;11.90;;
68126;SDS011;54931;52.098;21.006;2022-08-19T01:48:21;16.30;;;11.30;;
68126;SDS011;54931;52.098;21.006;2022-08-19T01:50:49;18.30;;;11.30;;
68126;SDS011;54931;52.098;21.006;2022-08-19T01:53:17;18.30;;;11.70;;
68126;SDS011;54931;52.098;21.006;2022-08-19T01:55:45;17.10;;;11.00;;
68126;SDS011;54931;52.098;21.006;2022-08-19T01:58:16;22.40;;;10.90;;
68126;SDS011;54931;52.098;21.006;2022-08-19T02:00:48;17.50;;;11.30;;
68126;SDS011;54931;52.098;21.006;2022-08-19T02:03:16;18.30;;;10.50;;
68126;SDS011;54931;52.098;21.006;2022-08-19T02:05:44;17.20;;;11.10;;
68126;SDS011;54931;52.098;21.006;2022-08-19T02:08:12;19.20;;;11.00;;
68126;SDS011;54931;52.098;21.006;2022-08-19T02:10:43;17.50;;;11.30;;
68126;SDS011;54931;52.098;21.006;2022-08-19T02:13:12;14.40;;;10.30;;
68126;SDS011;54931;52.098;21.006;2022-08-19T02:15:41;16.40;;;11.30;;
68126;SDS011;54931;52.098;21.006;2022-08-19T02:18:09;15.20;;;10.40;;
68126;SDS011;54931;52.098;21.006;2022-08-19T02:20:38;15.90;;;11.30;;
68126;SDS011;54931;52.098;21.006;2022-08-19T02:23:07;17.20;;;10.90;;
68126;SDS011;54931;52.098;21.006;2022-08-19T02:25:36;17.80;;;10.50;;
68126;SDS011;54931;52.098;21.006;2022-08-19T02:28:04;15.90;;;9.40;;
68126;SDS011;54931;52.098;21.006;2022-08-19T02:30:32;13.80;;;10.80;;
68126;SDS011;54931;52.098;21.006;2022-08-19T02:33:00;16.10;;;10.20;;
68126;SDS011;54931;52.098;21.006;2022-08-19T02:35:28;18.20;;;11.50;;
68126;SDS011;54931;52.098;21.006;2022-08-19T02:37:55;15.70;;;10.90;;
68126;SDS011;54931;52.098;21.006;2022-08-19T02:40:51;22.60;;;11.10;;
68126;SDS011;54931;52.098;21.006;2022-08-19T02:43:21;17.00;;;10.90;;
68126;SDS011;54931;52.098;21.006;2022-08-19T02:45:49;17.70;;;11.30;;
68126;SDS011;54931;52.098;21.006;2022-08-19T02:48:19;17.80;;;11.30;;
68126;SDS011;54931;52.098;21.006;2022-08-19T02:50:51;18.20;;;11.90;;
68126;SDS011;54931;52.098;21.006;2022-08-19T02:53:23;18.00;;;11.70;;
68126;SDS011;54931;52.098;21.006;2022-08-19T02:55:53;24.30;;;11.50;;
68126;SDS011;54931;52.098;21.006;2022-08-19T02:58:22;18.70;;;11.40;;
68126;SDS011;54931;52.098;21.006;2022-08-19T03:00:53;17.50;;;10.90;;
68126;SDS011;54931;52.098;21.006;2022-08-19T03:03:22;19.40;;;11.30;;
68126;SDS011;54931;52.098;21.006;2022-08-19T03:05:50;16.60;;;11.10;;
68126;SDS011;54931;52.098;21.006;2022-08-19T03:08:18;18.70;;;11.90;;
68126;SDS011;54931;52.098;21.006;2022-08-19T03:10:47;18.00;;;11.40;;
68126;SDS011;54931;52.098;21.006;2022-08-19T03:13:16;19.60;;;11.90;;
68126;SDS011;54931;52.098;21.006;2022-08-19T03:15:46;14.10;;;10.10;;
68126;SDS011;54931;52.098;21.006;2022-08-19T03:18:15;21.50;;;11.60;;
68126;SDS011;54931;52.098;21.006;2022-08-19T03:20:46;16.20;;;11.30;;
68126;SDS011;54931;52.098;21.006;2022-08-19T03:23:16;19.30;;;11.50;;
68126;SDS011;54931;52.098;21.006;2022-08-19T03:25:46;17.70;;;12.00;;
68126;SDS011;54931;52.098;21.006;2022-08-19T03:28:15;17.00;;;10.80;;
68126;SDS011;54931;52.098;21.006;2022-08-19T03:30:55;17.70;;;11.50;;
68126;SDS011;54931;52.098;21.006;2022-08-19T03:33:29;16.70;;;11.20;;
68126;SDS011;54931;52.098;21.006;2022-08-19T03:36:15;19.60;;;11.40;;
68126;SDS011;54931;52.098;21.006;2022-08-19T03:38:52;19.80;;;11.50;;
68126;SDS011;54931;52.098;21.006;2022-08-19T03:41:25;16.80;;;10.80;;
68126;SDS011;54931;52.098;21.006;2022-08-19T03:43:54;16.70;;;10.70;;
68126;SDS011;54931;52.098;21.006;2022-08-19T03:46:27;17.40;;;11.00;;
68126;SDS011;54931;52.098;21.006;2022-08-19T03:48:59;16.50;;;10.90;;
68126;SDS011;54931;52.098;21.006;2022-08-19T03:51:38;16.20;;;11.00;;
68126;SDS011;54931;52.098;21.006;2022-08-19T03:54:07;17.50;;;10.70;;
68126;SDS011;54931;52.098;21.006;2022-08-19T03:56:39;21.10;;;11.90;;
68126;SDS011;54931;52.098;21.006;2022-08-19T03:59:10;17.70;;;11.20;;
68126;SDS011;54931;52.098;21.006;2022-08-19T04:01:40;20.00;;;11.70;;
68126;SDS011;54931;52.098;21.006;2022-08-19T04:04:08;19.10;;;11.40;;
68126;SDS011;54931;52.098;21.006;2022-08-19T04:06:38;19.90;;;11.80;;
68126;SDS011;54931;52.098;21.006;2022-08-19T04:09:09;19.40;;;11.90;;
68126;SDS011;54931;52.098;21.006;2022-08-19T04:11:41;20.60;;;12.00;;
68126;SDS011;54931;52.098;21.006;2022-08-19T04:14:18;18.40;;;12.40;;
68126;SDS011;54931;52.098;21.006;2022-08-19T04:16:48;19.20;;;12.10;;
68126;SDS011;54931;52.098;21.006;2022-08-19T04:19:18;20.60;;;11.70;;
68126;SDS011;54931;52.098;21.006;2022-08-19T04:21:50;19.20;;;11.70;;
68126;SDS011;54931;52.098;21.006;2022-08-19T04:24:20;20.20;;;12.00;;
68126;SDS011;54931;52.098;21.006;2022-08-19T04:26:49;21.60;;;11.80;;
68126;SDS011;54931;52.098;21.006;2022-08-19T04:29:21;19.80;;;12.40;;
68126;SDS011;54931;52.098;21.006;2022-08-19T04:31:53;16.10;;;11.20;;
68126;SDS011;54931;52.098;21.006;2022-08-19T04:34:25;20.00;;;12.00;;
68126;SDS011;54931;52.098;21.006;2022-08-19T04:36:56;16.90;;;11.70;;
68126;SDS011;54931;52.098;21.006;2022-08-19T04:39:28;17.30;;;10.40;;
68126;SDS011;54931;52.098;21.006;2022-08-19T04:42:17;19.30;;;12.50;;
68126;SDS011;54931;52.098;21.006;2022-08-19T04:45:09;19.20;;;12.50;;
68126;SDS011;54931;52.098;21.006;2022-08-19T04:47:41;16.60;;;11.40;;
68126;SDS011;54931;52.098;21.006;2022-08-19T04:50:11;16.10;;;11.30;;
68126;SDS011;54931;52.098;21.006;2022-08-19T04:52:39;17.20;;;12.50;;
68126;SDS011;54931;52.098;21.006;2022-08-19T04:55:11;21.10;;;12.40;;
68126;SDS011;54931;52.098;21.006;2022-08-19T04:57:40;16.40;;;10.80;;
68126;SDS011;54931;52.098;21.006;2022-08-19T05:00:09;22.80;;;11.30;;
68126;SDS011;54931;52.098;21.006;2022-08-19T05:02:38;22.70;;;11.50;;
68126;SDS011;54931;52.098;21.006;2022-08-19T05:05:06;16.30;;;11.10;;
68126;SDS011;54931;52.098;21.006;2022-08-19T05:07:34;18.50;;;12.00;;
68126;SDS011;54931;52.098;21.006;2022-08-19T05:10:04;18.70;;;11.90;;
68126;SDS011;54931;52.098;21.006;2022-08-19T05:12:33;18.30;;;11.00;;
68126;SDS011;54931;52.098;21.006;2022-08-19T05:15:04;21.10;;;11.80;;
68126;SDS011;54931;52.098;21.006;2022-08-19T05:17:35;18.10;;;11.30;;
68126;SDS011;54931;52.098;21.006;2022-08-19T05:20:06;21.20;;;11.60;;
68126;SDS011;54931;52.098;21.006;2022-08-19T05:22:52;18.90;;;11.60;;
68126;SDS011;54931;52.098;21.006;2022-08-19T05:25:21;22.00;;;11.70;;
68126;SDS011;54931;52.098;21.006;2022-08-19T05:27:50;21.20;;;10.50;;
68126;SDS011;54931;52.098;21.006;2022-08-19T05:30:18;19.60;;;11.90;;
68126;SDS011;54931;52.098;21.006;2022-08-19T05:32:46;17.50;;;11.30;;
68126;SDS011;54931;52.098;21.006;2022-08-19T05:35:13;14.80;;;10.80;;
68126;SDS011;54931;52.098;21.006;2022-08-19T05:37:41;19.40;;;10.70;;
68126;SDS011;54931;52.098;21.006;2022-08-19T05:40:09;17.10;;;10.70;;
68126;SDS011;54931;52.098;21.006;2022-08-19T05:42:38;16.50;;;11.20;;
68126;SDS011;54931;52.098;21.006;2022-08-19T05:45:07;16.00;;;9.90;;
68126;SDS011;54931;52.098;21.006;2022-08-19T05:47:36;21.50;;;11.40;;
68126;SDS011;54931;52.098;21.006;2022-08-19T05:50:04;17.60;;;10.90;;
68126;SDS011;54931;52.098;21.006;2022-08-19T05:52:32;20.30;;;12.30;;
68126;SDS011;54931;52.098;21.006;2022-08-19T05:54:59;13.70;;;10.20;;
68126;SDS011;54931;52.098;21.006;2022-08-19T05:57:27;15.10;;;10.90;;
68126;SDS011;54931;52.098;21.006;2022-08-19T05:59:56;15.00;;;10.00;;
68126;SDS011;54931;52.098;21.006;2022-08-19T06:02:29;14.30;;;9.90;;
68126;SDS011;54931;52.098;21.006;2022-08-19T06:04:57;17.80;;;11.40;;
68126;SDS011;54931;52.098;21.006;2022-08-19T06:07:25;15.70;;;10.40;;
68126;SDS011;54931;52.098;21.006;2022-08-19T06:09:53;17.30;;;10.30;;
68126;SDS011;54931;52.098;21.006;2022-08-19T06:12:20;16.90;;;10.40;;
68126;SDS011;54931;52.098;21.006;2022-08-19T06:15:02;15.00;;;9.70;;
68126;SDS011;54931;52.098;21.006;2022-08-19T06:17:32;18.40;;;10.20;;
68126;SDS011;54931;52.098;21.006;2022-08-19T06:20:07;15.40;;;10.10;;
68126;SDS011;54931;52.098;21.006;2022-08-19T06:22:44;16.20;;;10.20;;
68126;SDS011;54931;52.098;21.006;2022-08-19T06:25:14;16.40;;;9.80;;
68126;SDS011;54931;52.098;21.006;2022-08-19T06:27:44;13.40;;;10.10;;
68126;SDS011;54931;52.098;21.006;2022-08-19T06:30:12;17.50;;;10.30;;
68126;SDS011;54931;52.098;21.006;2022-08-19T06:32:40;17.20;;;10.00;;
68126;SDS011;54931;52.098;21.006;2022-08-19T06:35:09;18.20;;;9.50;;
68126;SDS011;54931;52.098;21.006;2022-08-19T06:37:38;13.30;;;9.20;;
68126;SDS011;54931;52.098;21.006;2022-08-19T06:40:06;12.60;;;9.00;;
68126;SDS011;54931;52.098;21.006;2022-08-19T06:42:38;17.30;;;9.70;;
68126;SDS011;54931;52.098;21.006;2022-08-19T06:45:07;16.50;;;9.80;;
68126;SDS011;54931;52.098;21.006;2022-08-19T06:47:35;15.60;;;9.10;;
68126;SDS011;54931;52.098;21.006;2022-08-19T06:50:03;18.80;;;9.90;;
68126;SDS011;54931;52.098;21.006;2022-08-19T06:52:35;21.00;;;9.70;;
68126;SDS011;54931;52.098;21.006;2022-08-19T06:55:03;13.30;;;8.30;;
68126;SDS011;54931;52.098;21.006;2022-08-19T06:57:33;16.30;;;9.60;;
68126;SDS011;54931;52.098;21.006;2022-08-19T07:00:03;16.30;;;9.00;;
68126;SDS011;54931;52.098;21.006;2022-08-19T07:02:37;17.30;;;9.60;;
68126;SDS011;54931;52.098;21.006;2022-08-19T07:05:06;12.70;;;9.30;;
68126;SDS011;54931;52.098;21.006;2022-08-19T07:07:34;18.00;;;9.50;;
68126;SDS011;54931;52.098;21.006;2022-08-19T07:10:03;17.40;;;9.50;;
68126;SDS011;54931;52.098;21.006;2022-08-19T07:12:32;17.30;;;9.50;;
68126;SDS011;54931;52.098;21.006;2022-08-19T07:15:03;15.40;;;9.40;;
68126;SDS011;54931;52.098;21.006;2022-08-19T07:17:32;14.60;;;8.50;;
68126;SDS011;54931;52.098;21.006;2022-08-19T07:20:00;14.00;;;8.90;;
68126;SDS011;54931;52.098;21.006;2022-08-19T07:22:28;16.40;;;8.50;;
68126;SDS011;54931;52.098;21.006;2022-08-19T07:24:56;12.80;;;8.70;;
68126;SDS011;54931;52.098;21.006;2022-08-19T07:27:23;15.70;;;9.00;;
68126;SDS011;54931;52.098;21.006;2022-08-19T07:29:52;15.50;;;9.30;;
68126;SDS011;54931;52.098;21.006;2022-08-19T07:32:21;13.80;;;8.30;;
68126;SDS011;54931;52.098;21.006;2022-08-19T07:34:48;12.20;;;8.50;;
68126;SDS011;54931;52.098;21.006;2022-08-19T07:37:16;12.50;;;8.70;;
68126;SDS011;54931;52.098;21.006;2022-08-19T07:39:44;14.20;;;8.50;;
68126;SDS011;54931;52.098;21.006;2022-08-19T07:42:11;15.20;;;8.20;;
68126;SDS011;54931;52.098;21.006;2022-08-19T07:44:41;12.90;;;8.00;;
68126;SDS011;54931;52.098;21.006;2022-08-19T07:47:08;12.40;;;8.50;;
68126;SDS011;54931;52.098;21.006;2022-08-19T07:49:36;10.90;;;9.20;;
68126;SDS011;54931;52.098;21.006;2022-08-19T07:52:07;9.80;;;8.10;;
68126;SDS011;54931;52.098;21.006;2022-08-19T07:54:38;11.20;;;7.80;;
68126;SDS011;54931;52.098;21.006;2022-08-19T07:57:08;16.40;;;8.30;;
68126;SDS011;54931;52.098;21.006;2022-08-19T07:59:36;14.30;;;7.60;;
68126;SDS011;54931;52.098;21.006;2022-08-19T08:02:05;18.50;;;8.40;;
68126;SDS011;54931;52.098;21.006;2022-08-19T08:04:33;19.10;;;8.50;;
68126;SDS011;54931;52.098;21.006;2022-08-19T08:07:19;14.30;;;8.00;;
68126;SDS011;54931;52.098;21.006;2022-08-19T08:10:06;19.10;;;8.00;;
68126;SDS011;54931;52.098;21.006;2022-08-19T08:12:38;20.50;;;8.70;;
68126;SDS011;54931;52.098;21.006;2022-08-19T08:17:45;13.10;;;7.80;;
68126;SDS011;54931;52.098;21.006;2022-08-19T08:20:14;17.00;;;8.40;;
68126;SDS011;54931;52.098;21.006;2022-08-19T08:22:44;12.10;;;7.30;;
68126;SDS011;54931;52.098;21.006;2022-08-19T08:25:31;14.00;;;7.60;;
68126;SDS011;54931;52.098;21.006;2022-08-19T08:28:00;14.50;;;8.10;;
68126;SDS011;54931;52.098;21.006;2022-08-19T08:30:30;12.20;;;7.90;;
68126;SDS011;54931;52.098;21.006;2022-08-19T08:33:00;8.90;;;7.30;;
68126;SDS011;54931;52.098;21.006;2022-08-19T08:35:28;11.60;;;7.60;;
68126;SDS011;54931;52.098;21.006;2022-08-19T08:37:56;12.40;;;7.40;;
68126;SDS011;54931;52.098;21.006;2022-08-19T08:40:30;10.50;;;7.20;;
68126;SDS011;54931;52.098;21.006;2022-08-19T08:43:34;13.80;;;7.30;;
68126;SDS011;54931;52.098;21.006;2022-08-19T08:46:23;8.00;;;6.80;;
68126;SDS011;54931;52.098;21.006;2022-08-19T08:49:15;12.40;;;6.40;;
68126;SDS011;54931;52.098;21.006;2022-08-19T08:52:35;13.80;;;6.70;;
68126;SDS011;54931;52.098;21.006;2022-08-19T08:55:16;11.90;;;6.70;;
68126;SDS011;54931;52.098;21.006;2022-08-19T09:00:28;11.50;;;7.40;;
68126;SDS011;54931;52.098;21.006;2022-08-19T09:03:01;12.30;;;7.40;;
68126;SDS011;54931;52.098;21.006;2022-08-19T09:05:45;12.50;;;7.40;;
68126;SDS011;54931;52.098;21.006;2022-08-19T09:14:46;10.80;;;7.00;;
68126;SDS011;54931;52.098;21.006;2022-08-19T09:17:24;12.30;;;7.40;;
68126;SDS011;54931;52.098;21.006;2022-08-19T09:20:17;8.60;;;6.60;;
68126;SDS011;54931;52.098;21.006;2022-08-19T09:22:47;12.90;;;7.20;;
68126;SDS011;54931;52.098;21.006;2022-08-19T09:25:19;11.00;;;6.90;;
68126;SDS011;54931;52.098;21.006;2022-08-19T09:27:52;8.70;;;6.90;;
68126;SDS011;54931;52.098;21.006;2022-08-19T09:30:26;15.30;;;6.70;;
68126;SDS011;54931;52.098;21.006;2022-08-19T09:32:55;8.90;;;6.30;;
68126;SDS011;54931;52.098;21.006;2022-08-19T09:35:24;10.10;;;6.50;;
68126;SDS011;54931;52.098;21.006;2022-08-19T09:37:57;9.50;;;6.70;;
68126;SDS011;54931;52.098;21.006;2022-08-19T09:40:29;12.80;;;6.10;;
68126;SDS011;54931;52.098;21.006;2022-08-19T09:42:58;10.00;;;6.10;;
68126;SDS011;54931;52.098;21.006;2022-08-19T09:45:29;9.50;;;6.10;;
68126;SDS011;54931;52.098;21.006;2022-08-19T09:47:57;10.40;;;5.90;;
68126;SDS011;54931;52.098;21.006;2022-08-19T09:50:24;12.30;;;6.70;;
68126;SDS011;54931;52.098;21.006;2022-08-19T09:52:52;9.10;;;6.20;;
68126;SDS011;54931;52.098;21.006;2022-08-19T09:55:20;9.10;;;6.30;;
68126;SDS011;54931;52.098;21.006;2022-08-19T09:57:48;11.50;;;6.60;;
68126;SDS011;54931;52.098;21.006;2022-08-19T10:00:16;9.50;;;6.70;;
68126;SDS011;54931;52.098;21.006;2022-08-19T10:02:44;8.50;;;5.80;;
68126;SDS011;54931;52.098;21.006;2022-08-19T10:05:11;12.60;;;6.50;;
68126;SDS011;54931;52.098;21.006;2022-08-19T10:10:27;10.40;;;6.00;;
68126;SDS011;54931;52.098;21.006;2022-08-19T10:12:55;9.70;;;5.90;;
68126;SDS011;54931;52.098;21.006;2022-08-19T10:15:23;12.40;;;6.00;;
68126;SDS011;54931;52.098;21.006;2022-08-19T10:17:50;10.40;;;6.20;;
68126;SDS011;54931;52.098;21.006;2022-08-19T10:20:18;8.00;;;6.50;;
68126;SDS011;54931;52.098;21.006;2022-08-19T10:22:46;9.70;;;6.20;;
68126;SDS011;54931;52.098;21.006;2022-08-19T10:25:14;6.90;;;5.40;;
68126;SDS011;54931;52.098;21.006;2022-08-19T10:27:43;16.20;;;6.20;;
68126;SDS011;54931;52.098;21.006;2022-08-19T10:30:11;11.70;;;6.50;;
68126;SDS011;54931;52.098;21.006;2022-08-19T10:32:40;14.30;;;7.00;;
68126;SDS011;54931;52.098;21.006;2022-08-19T10:35:07;12.40;;;6.70;;
68126;SDS011;54931;52.098;21.006;2022-08-19T10:37:36;12.90;;;6.40;;
68126;SDS011;54931;52.098;21.006;2022-08-19T10:40:07;10.80;;;7.00;;
68126;SDS011;54931;52.098;21.006;2022-08-19T10:42:37;10.20;;;6.50;;
68126;SDS011;54931;52.098;21.006;2022-08-19T10:45:05;9.80;;;6.40;;
68126;SDS011;54931;52.098;21.006;2022-08-19T10:47:34;15.20;;;7.70;;
68126;SDS011;54931;52.098;21.006;2022-08-19T10:50:02;16.00;;;7.60;;
68126;SDS011;54931;52.098;21.006;2022-08-19T10:52:50;12.80;;;6.60;;
68126;SDS011;54931;52.098;21.006;2022-08-19T10:55:21;8.80;;;7.40;;
68126;SDS011;54931;52.098;21.006;2022-08-19T10:58:18;12.50;;;7.20;;
68126;SDS011;54931;52.098;21.006;2022-08-19T11:00:53;11.10;;;6.70;;
68126;SDS011;54931;52.098;21.006;2022-08-19T11:03:23;13.50;;;7.20;;
68126;SDS011;54931;52.098;21.006;2022-08-19T11:06:04;15.70;;;7.10;;
68126;SDS011;54931;52.098;21.006;2022-08-19T11:08:35;13.00;;;7.50;;
68126;SDS011;54931;52.098;21.006;2022-08-19T11:11:05;13.20;;;7.30;;
68126;SDS011;54931;52.098;21.006;2022-08-19T11:13:37;14.00;;;7.40;;
68126;SDS011;54931;52.098;21.006;2022-08-19T11:16:09;11.20;;;7.00;;
68126;SDS011;54931;52.098;21.006;2022-08-19T11:18:44;15.60;;;7.30;;
68126;SDS011;54931;52.098;21.006;2022-08-19T11:21:31;14.10;;;7.30;;
68126;SDS011;54931;52.098;21.006;2022-08-19T11:24:05;15.20;;;7.80;;
68126;SDS011;54931;52.098;21.006;2022-08-19T11:26:35;14.80;;;7.40;;
68126;SDS011;54931;52.098;21.006;2022-08-19T11:29:06;16.70;;;7.60;;
68126;SDS011;54931;52.098;21.006;2022-08-19T11:31:41;9.90;;;6.80;;
68126;SDS011;54931;52.098;21.006;2022-08-19T11:34:14;10.60;;;7.90;;
68126;SDS011;54931;52.098;21.006;2022-08-19T11:36:46;15.80;;;7.40;;
68126;SDS011;54931;52.098;21.006;2022-08-19T11:39:18;10.70;;;7.00;;
68126;SDS011;54931;52.098;21.006;2022-08-19T11:41:47;13.30;;;7.90;;
68126;SDS011;54931;52.098;21.006;2022-08-19T11:44:15;12.20;;;7.60;;
68126;SDS011;54931;52.098;21.006;2022-08-19T11:46:45;13.50;;;7.00;;
68126;SDS011;54931;52.098;21.006;2022-08-19T11:49:15;16.00;;;7.70;;
68126;SDS011;54931;52.098;21.006;2022-08-19T11:51:46;10.90;;;6.80;;
68126;SDS011;54931;52.098;21.006;2022-08-19T11:54:15;11.90;;;7.20;;
68126;SDS011;54931;52.098;21.006;2022-08-19T11:56:44;9.50;;;6.10;;
68126;SDS011;54931;52.098;21.006;2022-08-19T11:59:13;8.10;;;6.30;;
68126;SDS011;54931;52.098;21.006;2022-08-19T12:01:40;14.20;;;7.70;;
68126;SDS011;54931;52.098;21.006;2022-08-19T12:04:10;9.00;;;7.10;;
68126;SDS011;54931;52.098;21.006;2022-08-19T12:06:40;11.50;;;7.40;;
68126;SDS011;54931;52.098;21.006;2022-08-19T12:09:09;12.80;;;7.00;;
68126;SDS011;54931;52.098;21.006;2022-08-19T12:11:39;12.20;;;6.90;;
68126;SDS011;54931;52.098;21.006;2022-08-19T12:14:10;13.50;;;7.50;;
68126;SDS011;54931;52.098;21.006;2022-08-19T12:16:40;8.60;;;6.30;;
68126;SDS011;54931;52.098;21.006;2022-08-19T12:19:08;10.70;;;6.40;;
68126;SDS011;54931;52.098;21.006;2022-08-19T12:21:35;12.50;;;6.50;;
68126;SDS011;54931;52.098;21.006;2022-08-19T12:24:04;13.40;;;6.60;;
68126;SDS011;54931;52.098;21.006;2022-08-19T12:26:33;11.00;;;6.80;;
68126;SDS011;54931;52.098;21.006;2022-08-19T12:29:02;12.40;;;7.70;;
68126;SDS011;54931;52.098;21.006;2022-08-19T12:31:30;12.90;;;6.50;;
68126;SDS011;54931;52.098;21.006;2022-08-19T12:33:58;12.20;;;6.90;;
68126;SDS011;54931;52.098;21.006;2022-08-19T12:36:27;14.00;;;6.50;;
68126;SDS011;54931;52.098;21.006;2022-08-19T12:38:58;13.10;;;7.00;;
68126;SDS011;54931;52.098;21.006;2022-08-19T12:41:26;10.60;;;7.00;;
68126;SDS011;54931;52.098;21.006;2022-08-19T12:43:54;11.90;;;6.40;;
68126;SDS011;54931;52.098;21.006;2022-08-19T12:46:22;12.40;;;6.20;;
68126;SDS011;54931;52.098;21.006;2022-08-19T12:48:50;12.00;;;6.90;;
68126;SDS011;54931;52.098;21.006;2022-08-19T12:51:19;12.80;;;7.20;;
68126;SDS011;54931;52.098;21.006;2022-08-19T12:53:47;11.60;;;6.10;;
68126;SDS011;54931;52.098;21.006;2022-08-19T12:56:17;7.70;;;6.00;;
68126;SDS011;54931;52.098;21.006;2022-08-19T12:58:45;12.50;;;6.80;;
68126;SDS011;54931;52.098;21.006;2022-08-19T13:01:15;11.30;;;6.60;;
68126;SDS011;54931;52.098;21.006;2022-08-19T13:03:47;12.90;;;6.80;;
68126;SDS011;54931;52.098;21.006;2022-08-19T13:06:15;8.10;;;6.40;;
68126;SDS011;54931;52.098;21.006;2022-08-19T13:08:43;9.90;;;5.80;;
68126;SDS011;54931;52.098;21.006;2022-08-19T13:11:14;11.30;;;6.50;;
68126;SDS011;54931;52.098;21.006;2022-08-19T13:13:47;14.30;;;6.40;;
68126;SDS011;54931;52.098;21.006;2022-08-19T13:16:18;10.10;;;6.30;;
68126;SDS011;54931;52.098;21.006;2022-08-19T13:18:47;11.40;;;6.60;;
68126;SDS011;54931;52.098;21.006;2022-08-19T13:21:18;10.30;;;6.70;;
68126;SDS011;54931;52.098;21.006;2022-08-19T13:23:47;12.30;;;6.50;;
68126;SDS011;54931;52.098;21.006;2022-08-19T13:26:16;8.80;;;6.30;;
68126;SDS011;54931;52.098;21.006;2022-08-19T13:28:45;7.40;;;5.60;;
68126;SDS011;54931;52.098;21.006;2022-08-19T13:31:34;7.50;;;6.30;;
68126;SDS011;54931;52.098;21.006;2022-08-19T13:34:33;9.70;;;6.00;;
68126;SDS011;54931;52.098;21.006;2022-08-19T13:37:03;10.60;;;6.10;;
68126;SDS011;54931;52.098;21.006;2022-08-19T13:39:32;12.10;;;5.80;;
68126;SDS011;54931;52.098;21.006;2022-08-19T13:42:02;8.60;;;5.90;;
68126;SDS011;54931;52.098;21.006;2022-08-19T13:44:32;7.80;;;5.80;;
68126;SDS011;54931;52.098;21.006;2022-08-19T13:47:05;11.00;;;5.50;;
68126;SDS011;54931;52.098;21.006;2022-08-19T13:49:34;11.40;;;5.80;;
68126;SDS011;54931;52.098;21.006;2022-08-19T13:52:04;11.10;;;5.70;;
68126;SDS011;54931;52.098;21.006;2022-08-19T13:54:32;8.60;;;5.50;;
68126;SDS011;54931;52.098;21.006;2022-08-19T13:57:00;10.00;;;5.70;;
68126;SDS011;54931;52.098;21.006;2022-08-19T13:59:27;9.70;;;5.90;;
68126;SDS011;54931;52.098;21.006;2022-08-19T14:02:00;13.20;;;6.70;;
68126;SDS011;54931;52.098;21.006;2022-08-19T14:04:28;9.30;;;5.50;;
68126;SDS011;54931;52.098;21.006;2022-08-19T14:06:55;9.60;;;5.40;;
68126;SDS011;54931;52.098;21.006;2022-08-19T14:09:23;7.10;;;5.20;;
68126;SDS011;54931;52.098;21.006;2022-08-19T14:11:51;11.90;;;6.10;;
68126;SDS011;54931;52.098;21.006;2022-08-19T14:14:18;9.30;;;5.80;;
68126;SDS011;54931;52.098;21.006;2022-08-19T14:16:46;7.30;;;5.40;;
68126;SDS011;54931;52.098;21.006;2022-08-19T14:19:14;8.80;;;5.60;;
68126;SDS011;54931;52.098;21.006;2022-08-19T14:21:42;10.40;;;5.40;;
68126;SDS011;54931;52.098;21.006;2022-08-19T14:24:09;14.60;;;5.80;;
68126;SDS011;54931;52.098;21.006;2022-08-19T14:26:37;7.10;;;5.20;;
68126;SDS011;54931;52.098;21.006;2022-08-19T14:29:05;9.70;;;5.80;;
68126;SDS011;54931;52.098;21.006;2022-08-19T14:31:32;10.40;;;5.40;;
68126;SDS011;54931;52.098;21.006;2022-08-19T14:34:00;9.90;;;5.20;;
68126;SDS011;54931;52.098;21.006;2022-08-19T14:36:28;8.00;;;4.50;;
68126;SDS011;54931;52.098;21.006;2022-08-19T14:38:55;12.80;;;5.00;;
68126;SDS011;54931;52.098;21.006;2022-08-19T14:41:24;8.60;;;4.90;;
68126;SDS011;54931;52.098;21.006;2022-08-19T14:43:54;7.20;;;4.80;;
68126;SDS011;54931;52.098;21.006;2022-08-19T14:46:24;10.10;;;5.10;;
68126;SDS011;54931;52.098;21.006;2022-08-19T14:48:54;10.90;;;5.20;;
68126;SDS011;54931;52.098;21.006;2022-08-19T14:51:24;9.80;;;5.10;;
68126;SDS011;54931;52.098;21.006;2022-08-19T14:53:53;6.00;;;4.10;;
68126;SDS011;54931;52.098;21.006;2022-08-19T14:56:25;9.20;;;5.00;;
68126;SDS011;54931;52.098;21.006;2022-08-19T14:58:55;8.40;;;4.90;;